sensor_id;sensor_type;location;lat;lon;timestamp;P1;durP1;ratioP1;P2;durP2;ratioP2
66264;SDS011;53055;44.648;21.148;2023-05-02T00:01:59;7.28;;;2.90;;
66264;SDS011;53055;44.648;21.148;2023-05-02T00:04:25;7.85;;;3.30;;
66264;SDS011;53055;44.648;21.148;2023-05-02T00:06:54;6.15;;;2.90;;
66264;SDS011;53055;44.648;21.148;2023-05-02T00:09:20;7.38;;;3.20;;
66264;SDS011;53055;44.648;21.148;2023-05-02T00:11:46;6.38;;;3.13;;
66264;SDS011;53055;44.648;21.148;2023-05-02T00:14:12;6.95;;;3.03;;
66264;SDS011;53055;44.648;21.148;2023-05-02T00:16:38;6.38;;;3.05;;
66264;SDS011;53055;44.648;21.148;2023-05-02T00:19:04;7.38;;;2.85;;
66264;SDS011;53055;44.648;21.148;2023-05-02T00:21:30;7.65;;;3.00;;
66264;SDS011;53055;44.648;21.148;2023-05-02T00:23:57;7.07;;;3.05;;
66264;SDS011;53055;44.648;21.148;2023-05-02T00:26:23;7.70;;;3.00;;
66264;SDS011;53055;44.648;21.148;2023-05-02T00:28:49;6.72;;;3.70;;
66264;SDS011;53055;44.648;21.148;2023-05-02T00:31:15;6.43;;;2.80;;
66264;SDS011;53055;44.648;21.148;2023-05-02T00:33:41;6.22;;;3.10;;
66264;SDS011;53055;44.648;21.148;2023-05-02T00:36:17;6.70;;;3.35;;
66264;SDS011;53055;44.648;21.148;2023-05-02T00:38:43;7.35;;;3.13;;
66264;SDS011;53055;44.648;21.148;2023-05-02T00:41:09;8.23;;;3.13;;
66264;SDS011;53055;44.648;21.148;2023-05-02T00:43:35;5.32;;;2.90;;
66264;SDS011;53055;44.648;21.148;2023-05-02T00:46:03;8.07;;;3.33;;
66264;SDS011;53055;44.648;21.148;2023-05-02T00:48:29;7.93;;;3.22;;
66264;SDS011;53055;44.648;21.148;2023-05-02T00:50:56;6.60;;;3.03;;
66264;SDS011;53055;44.648;21.148;2023-05-02T00:53:22;6.47;;;3.17;;
66264;SDS011;53055;44.648;21.148;2023-05-02T00:55:48;7.53;;;3.55;;
66264;SDS011;53055;44.648;21.148;2023-05-02T00:58:15;6.70;;;3.40;;
66264;SDS011;53055;44.648;21.148;2023-05-02T01:14:05;8.77;;;3.20;;
66264;SDS011;53055;44.648;21.148;2023-05-02T01:16:33;8.95;;;4.65;;
66264;SDS011;53055;44.648;21.148;2023-05-02T01:19:02;9.10;;;4.40;;
66264;SDS011;53055;44.648;21.148;2023-05-02T01:21:30;7.10;;;4.05;;
66264;SDS011;53055;44.648;21.148;2023-05-02T01:24:11;7.78;;;4.00;;
66264;SDS011;53055;44.648;21.148;2023-05-02T01:26:48;11.63;;;4.10;;
66264;SDS011;53055;44.648;21.148;2023-05-02T01:29:16;7.93;;;3.92;;
66264;SDS011;53055;44.648;21.148;2023-05-02T01:31:43;8.15;;;5.20;;
66264;SDS011;53055;44.648;21.148;2023-05-02T01:34:11;6.75;;;3.35;;
66264;SDS011;53055;44.648;21.148;2023-05-02T01:36:43;8.35;;;3.80;;
66264;SDS011;53055;44.648;21.148;2023-05-02T01:39:12;7.00;;;4.07;;
66264;SDS011;53055;44.648;21.148;2023-05-02T01:41:38;6.68;;;3.90;;
66264;SDS011;53055;44.648;21.148;2023-05-02T01:44:05;5.07;;;2.78;;
66264;SDS011;53055;44.648;21.148;2023-05-02T01:46:33;7.38;;;3.85;;
66264;SDS011;53055;44.648;21.148;2023-05-02T01:49:00;9.95;;;6.50;;
66264;SDS011;53055;44.648;21.148;2023-05-02T01:51:27;8.00;;;3.55;;
66264;SDS011;53055;44.648;21.148;2023-05-02T01:53:56;8.43;;;3.92;;
66264;SDS011;53055;44.648;21.148;2023-05-02T01:56:24;12.18;;;9.02;;
66264;SDS011;53055;44.648;21.148;2023-05-02T01:58:52;6.32;;;3.08;;
66264;SDS011;53055;44.648;21.148;2023-05-02T02:01:18;7.15;;;3.42;;
66264;SDS011;53055;44.648;21.148;2023-05-02T02:03:45;7.70;;;3.83;;
66264;SDS011;53055;44.648;21.148;2023-05-02T02:06:12;7.45;;;4.32;;
66264;SDS011;53055;44.648;21.148;2023-05-02T02:08:38;8.40;;;4.57;;
66264;SDS011;53055;44.648;21.148;2023-05-02T02:11:07;10.40;;;6.10;;
66264;SDS011;53055;44.648;21.148;2023-05-02T02:13:34;9.75;;;6.28;;
66264;SDS011;53055;44.648;21.148;2023-05-02T02:16:02;9.60;;;4.80;;
66264;SDS011;53055;44.648;21.148;2023-05-02T02:18:29;6.78;;;3.55;;
66264;SDS011;53055;44.648;21.148;2023-05-02T02:20:56;8.88;;;3.95;;
66264;SDS011;53055;44.648;21.148;2023-05-02T02:23:24;8.20;;;3.45;;
66264;SDS011;53055;44.648;21.148;2023-05-02T02:25:51;8.63;;;3.80;;
66264;SDS011;53055;44.648;21.148;2023-05-02T02:28:18;7.22;;;3.72;;
66264;SDS011;53055;44.648;21.148;2023-05-02T02:30:44;11.25;;;5.35;;
66264;SDS011;53055;44.648;21.148;2023-05-02T02:33:11;6.28;;;3.22;;
66264;SDS011;53055;44.648;21.148;2023-05-02T02:35:38;6.50;;;3.13;;
66264;SDS011;53055;44.648;21.148;2023-05-02T02:40:43;8.55;;;3.50;;
66264;SDS011;53055;44.648;21.148;2023-05-02T02:45:45;8.45;;;3.65;;
66264;SDS011;53055;44.648;21.148;2023-05-02T02:53:18;6.97;;;3.90;;
66264;SDS011;53055;44.648;21.148;2023-05-02T02:55:52;7.28;;;3.50;;
66264;SDS011;53055;44.648;21.148;2023-05-02T03:01:26;8.10;;;3.50;;
66264;SDS011;53055;44.648;21.148;2023-05-02T03:03:52;7.40;;;2.97;;
66264;SDS011;53055;44.648;21.148;2023-05-02T03:06:19;11.10;;;3.17;;
66264;SDS011;53055;44.648;21.148;2023-05-02T03:08:45;7.80;;;3.10;;
66264;SDS011;53055;44.648;21.148;2023-05-02T03:11:11;8.02;;;3.70;;
66264;SDS011;53055;44.648;21.148;2023-05-02T03:13:37;8.18;;;3.72;;
66264;SDS011;53055;44.648;21.148;2023-05-02T03:18:44;9.13;;;4.60;;
66264;SDS011;53055;44.648;21.148;2023-05-02T03:21:10;7.88;;;3.90;;
66264;SDS011;53055;44.648;21.148;2023-05-02T03:23:36;7.35;;;3.70;;
66264;SDS011;53055;44.648;21.148;2023-05-02T03:26:02;8.88;;;3.40;;
66264;SDS011;53055;44.648;21.148;2023-05-02T03:28:28;9.60;;;3.88;;
66264;SDS011;53055;44.648;21.148;2023-05-02T03:30:54;9.77;;;5.35;;
66264;SDS011;53055;44.648;21.148;2023-05-02T03:33:20;11.65;;;4.55;;
66264;SDS011;53055;44.648;21.148;2023-05-02T03:35:46;8.50;;;4.63;;
66264;SDS011;53055;44.648;21.148;2023-05-02T03:38:12;8.05;;;3.72;;
66264;SDS011;53055;44.648;21.148;2023-05-02T03:40:38;7.85;;;3.78;;
66264;SDS011;53055;44.648;21.148;2023-05-02T03:43:04;13.07;;;4.47;;
66264;SDS011;53055;44.648;21.148;2023-05-02T03:45:30;10.00;;;6.30;;
66264;SDS011;53055;44.648;21.148;2023-05-02T03:47:57;8.02;;;3.92;;
66264;SDS011;53055;44.648;21.148;2023-05-02T03:50:22;7.60;;;4.00;;
66264;SDS011;53055;44.648;21.148;2023-05-02T03:52:49;10.00;;;4.55;;
66264;SDS011;53055;44.648;21.148;2023-05-02T03:55:15;8.13;;;4.60;;
66264;SDS011;53055;44.648;21.148;2023-05-02T03:57:41;9.02;;;3.95;;
66264;SDS011;53055;44.648;21.148;2023-05-02T04:00:07;10.35;;;3.47;;
66264;SDS011;53055;44.648;21.148;2023-05-02T04:02:33;7.13;;;3.70;;
66264;SDS011;53055;44.648;21.148;2023-05-02T04:04:59;6.88;;;4.22;;
66264;SDS011;53055;44.648;21.148;2023-05-02T04:07:25;11.15;;;5.60;;
66264;SDS011;53055;44.648;21.148;2023-05-02T04:09:51;8.90;;;4.95;;
66264;SDS011;53055;44.648;21.148;2023-05-02T04:12:17;10.65;;;5.18;;
66264;SDS011;53055;44.648;21.148;2023-05-02T04:14:43;9.07;;;5.45;;
66264;SDS011;53055;44.648;21.148;2023-05-02T04:17:09;8.85;;;4.53;;
66264;SDS011;53055;44.648;21.148;2023-05-02T04:19:35;9.20;;;3.90;;
66264;SDS011;53055;44.648;21.148;2023-05-02T04:22:01;11.07;;;4.88;;
66264;SDS011;53055;44.648;21.148;2023-05-02T04:24:27;10.85;;;5.32;;
66264;SDS011;53055;44.648;21.148;2023-05-02T04:26:53;11.82;;;5.97;;
66264;SDS011;53055;44.648;21.148;2023-05-02T04:29:20;7.57;;;4.22;;
66264;SDS011;53055;44.648;21.148;2023-05-02T04:31:46;9.20;;;3.80;;
66264;SDS011;53055;44.648;21.148;2023-05-02T04:34:12;9.38;;;4.03;;
66264;SDS011;53055;44.648;21.148;2023-05-02T04:36:38;8.65;;;3.90;;
66264;SDS011;53055;44.648;21.148;2023-05-02T04:39:05;7.57;;;4.85;;
66264;SDS011;53055;44.648;21.148;2023-05-02T04:41:31;8.80;;;4.65;;
66264;SDS011;53055;44.648;21.148;2023-05-02T04:43:58;7.15;;;4.00;;
66264;SDS011;53055;44.648;21.148;2023-05-02T04:46:24;10.70;;;5.72;;
66264;SDS011;53055;44.648;21.148;2023-05-02T04:48:50;7.38;;;3.67;;
66264;SDS011;53055;44.648;21.148;2023-05-02T04:51:16;6.28;;;3.35;;
66264;SDS011;53055;44.648;21.148;2023-05-02T04:53:42;9.88;;;4.13;;
66264;SDS011;53055;44.648;21.148;2023-05-02T04:56:08;6.88;;;3.92;;
66264;SDS011;53055;44.648;21.148;2023-05-02T04:58:35;9.13;;;4.82;;
66264;SDS011;53055;44.648;21.148;2023-05-02T05:01:01;6.93;;;3.47;;
66264;SDS011;53055;44.648;21.148;2023-05-02T05:03:27;8.70;;;3.83;;
66264;SDS011;53055;44.648;21.148;2023-05-02T05:05:54;8.63;;;4.15;;
66264;SDS011;53055;44.648;21.148;2023-05-02T05:08:21;8.57;;;4.72;;
66264;SDS011;53055;44.648;21.148;2023-05-02T05:10:47;8.75;;;3.55;;
66264;SDS011;53055;44.648;21.148;2023-05-02T05:13:13;10.50;;;4.05;;
66264;SDS011;53055;44.648;21.148;2023-05-02T05:15:39;10.70;;;4.43;;
66264;SDS011;53055;44.648;21.148;2023-05-02T05:18:05;7.70;;;4.00;;
66264;SDS011;53055;44.648;21.148;2023-05-02T05:20:31;9.52;;;4.00;;
66264;SDS011;53055;44.648;21.148;2023-05-02T05:22:57;7.40;;;3.90;;
66264;SDS011;53055;44.648;21.148;2023-05-02T05:25:27;11.40;;;4.93;;
66264;SDS011;53055;44.648;21.148;2023-05-02T05:27:53;10.50;;;6.50;;
66264;SDS011;53055;44.648;21.148;2023-05-02T05:30:22;9.82;;;4.65;;
66264;SDS011;53055;44.648;21.148;2023-05-02T05:32:49;9.73;;;4.63;;
66264;SDS011;53055;44.648;21.148;2023-05-02T05:35:15;8.20;;;3.90;;
66264;SDS011;53055;44.648;21.148;2023-05-02T05:37:41;9.82;;;4.30;;
66264;SDS011;53055;44.648;21.148;2023-05-02T05:40:07;8.30;;;4.47;;
66264;SDS011;53055;44.648;21.148;2023-05-02T05:42:34;6.97;;;4.05;;
66264;SDS011;53055;44.648;21.148;2023-05-02T05:45:00;9.40;;;4.57;;
66264;SDS011;53055;44.648;21.148;2023-05-02T05:47:26;11.52;;;3.92;;
66264;SDS011;53055;44.648;21.148;2023-05-02T05:49:55;10.18;;;4.43;;
66264;SDS011;53055;44.648;21.148;2023-05-02T05:52:21;9.73;;;4.40;;
66264;SDS011;53055;44.648;21.148;2023-05-02T05:54:47;10.48;;;3.60;;
66264;SDS011;53055;44.648;21.148;2023-05-02T05:57:13;7.60;;;3.70;;
66264;SDS011;53055;44.648;21.148;2023-05-02T05:59:39;8.25;;;3.75;;
66264;SDS011;53055;44.648;21.148;2023-05-02T06:02:05;8.45;;;3.20;;
66264;SDS011;53055;44.648;21.148;2023-05-02T06:04:31;8.02;;;3.40;;
66264;SDS011;53055;44.648;21.148;2023-05-02T06:06:57;7.45;;;3.30;;
66264;SDS011;53055;44.648;21.148;2023-05-02T06:09:23;7.55;;;3.22;;
66264;SDS011;53055;44.648;21.148;2023-05-02T06:11:50;8.90;;;3.42;;
66264;SDS011;53055;44.648;21.148;2023-05-02T06:14:16;9.00;;;4.20;;
66264;SDS011;53055;44.648;21.148;2023-05-02T06:16:42;6.78;;;3.80;;
66264;SDS011;53055;44.648;21.148;2023-05-02T06:19:08;7.63;;;3.20;;
66264;SDS011;53055;44.648;21.148;2023-05-02T06:21:37;6.80;;;3.05;;
66264;SDS011;53055;44.648;21.148;2023-05-02T06:24:03;8.77;;;3.70;;
66264;SDS011;53055;44.648;21.148;2023-05-02T06:26:29;6.57;;;3.10;;
66264;SDS011;53055;44.648;21.148;2023-05-02T06:28:55;6.43;;;3.50;;
66264;SDS011;53055;44.648;21.148;2023-05-02T06:31:21;8.07;;;3.40;;
66264;SDS011;53055;44.648;21.148;2023-05-02T06:33:47;7.07;;;3.50;;
66264;SDS011;53055;44.648;21.148;2023-05-02T06:36:13;9.40;;;3.78;;
66264;SDS011;53055;44.648;21.148;2023-05-02T06:38:39;10.35;;;3.60;;
66264;SDS011;53055;44.648;21.148;2023-05-02T06:41:05;9.15;;;3.60;;
66264;SDS011;53055;44.648;21.148;2023-05-02T06:43:31;8.52;;;3.38;;
66264;SDS011;53055;44.648;21.148;2023-05-02T06:45:57;7.63;;;3.65;;
66264;SDS011;53055;44.648;21.148;2023-05-02T06:48:24;7.53;;;3.78;;
66264;SDS011;53055;44.648;21.148;2023-05-02T06:50:50;10.43;;;3.55;;
66264;SDS011;53055;44.648;21.148;2023-05-02T06:53:17;10.25;;;3.70;;
66264;SDS011;53055;44.648;21.148;2023-05-02T06:55:44;8.38;;;3.40;;
66264;SDS011;53055;44.648;21.148;2023-05-02T06:58:10;10.13;;;4.10;;
66264;SDS011;53055;44.648;21.148;2023-05-02T07:00:37;9.75;;;4.63;;
66264;SDS011;53055;44.648;21.148;2023-05-02T07:03:03;8.20;;;3.58;;
66264;SDS011;53055;44.648;21.148;2023-05-02T07:05:29;8.57;;;3.80;;
66264;SDS011;53055;44.648;21.148;2023-05-02T07:07:55;9.85;;;3.40;;
66264;SDS011;53055;44.648;21.148;2023-05-02T07:10:21;7.05;;;3.30;;
66264;SDS011;53055;44.648;21.148;2023-05-02T07:12:47;7.75;;;3.38;;
66264;SDS011;53055;44.648;21.148;2023-05-02T07:15:13;8.48;;;3.35;;
66264;SDS011;53055;44.648;21.148;2023-05-02T07:17:40;10.18;;;3.75;;
66264;SDS011;53055;44.648;21.148;2023-05-02T07:20:06;7.78;;;3.65;;
66264;SDS011;53055;44.648;21.148;2023-05-02T07:22:33;6.90;;;3.30;;
66264;SDS011;53055;44.648;21.148;2023-05-02T07:25:00;8.32;;;3.50;;
66264;SDS011;53055;44.648;21.148;2023-05-02T07:27:26;8.35;;;3.78;;
66264;SDS011;53055;44.648;21.148;2023-05-02T07:29:52;7.57;;;3.00;;
66264;SDS011;53055;44.648;21.148;2023-05-02T07:32:19;8.50;;;3.50;;
66264;SDS011;53055;44.648;21.148;2023-05-02T07:34:51;8.18;;;4.55;;
66264;SDS011;53055;44.648;21.148;2023-05-02T07:37:21;6.40;;;3.10;;
66264;SDS011;53055;44.648;21.148;2023-05-02T07:39:47;7.22;;;5.28;;
66264;SDS011;53055;44.648;21.148;2023-05-02T07:42:13;9.52;;;5.03;;
66264;SDS011;53055;44.648;21.148;2023-05-02T07:44:39;8.10;;;4.03;;
66264;SDS011;53055;44.648;21.148;2023-05-02T07:47:06;8.45;;;3.80;;
66264;SDS011;53055;44.648;21.148;2023-05-02T07:49:33;11.18;;;5.75;;
66264;SDS011;53055;44.648;21.148;2023-05-02T07:51:59;7.80;;;3.70;;
66264;SDS011;53055;44.648;21.148;2023-05-02T07:54:25;8.45;;;5.32;;
66264;SDS011;53055;44.648;21.148;2023-05-02T07:56:51;12.00;;;6.32;;
66264;SDS011;53055;44.648;21.148;2023-05-02T07:59:18;11.40;;;5.40;;
66264;SDS011;53055;44.648;21.148;2023-05-02T08:01:44;10.35;;;4.07;;
66264;SDS011;53055;44.648;21.148;2023-05-02T08:04:10;10.80;;;4.28;;
66264;SDS011;53055;44.648;21.148;2023-05-02T08:06:36;7.28;;;4.18;;
66264;SDS011;53055;44.648;21.148;2023-05-02T08:09:02;8.00;;;4.10;;
66264;SDS011;53055;44.648;21.148;2023-05-02T08:11:28;13.35;;;8.40;;
66264;SDS011;53055;44.648;21.148;2023-05-02T08:13:55;9.23;;;4.95;;
66264;SDS011;53055;44.648;21.148;2023-05-02T08:16:21;10.70;;;5.28;;
66264;SDS011;53055;44.648;21.148;2023-05-02T08:18:47;13.55;;;6.47;;
66264;SDS011;53055;44.648;21.148;2023-05-02T08:21:13;9.57;;;4.13;;
66264;SDS011;53055;44.648;21.148;2023-05-02T08:23:40;7.93;;;3.80;;
66264;SDS011;53055;44.648;21.148;2023-05-02T08:26:06;10.90;;;4.68;;
66264;SDS011;53055;44.648;21.148;2023-05-02T08:28:32;7.78;;;3.92;;
66264;SDS011;53055;44.648;21.148;2023-05-02T08:30:58;8.70;;;3.63;;
66264;SDS011;53055;44.648;21.148;2023-05-02T08:33:24;9.13;;;4.70;;
66264;SDS011;53055;44.648;21.148;2023-05-02T08:35:50;8.43;;;3.88;;
66264;SDS011;53055;44.648;21.148;2023-05-02T08:38:17;8.98;;;5.05;;
66264;SDS011;53055;44.648;21.148;2023-05-02T08:40:43;8.68;;;4.38;;
66264;SDS011;53055;44.648;21.148;2023-05-02T08:43:09;9.60;;;4.97;;
66264;SDS011;53055;44.648;21.148;2023-05-02T08:45:40;10.43;;;5.55;;
66264;SDS011;53055;44.648;21.148;2023-05-02T08:48:07;7.68;;;4.13;;
66264;SDS011;53055;44.648;21.148;2023-05-02T08:50:37;8.63;;;4.68;;
66264;SDS011;53055;44.648;21.148;2023-05-02T08:53:06;8.05;;;4.28;;
66264;SDS011;53055;44.648;21.148;2023-05-02T08:55:33;9.98;;;5.82;;
66264;SDS011;53055;44.648;21.148;2023-05-02T08:57:59;11.32;;;3.65;;
66264;SDS011;53055;44.648;21.148;2023-05-02T09:00:28;10.15;;;3.53;;
66264;SDS011;53055;44.648;21.148;2023-05-02T09:05:22;8.23;;;4.60;;
66264;SDS011;53055;44.648;21.148;2023-05-02T09:07:49;9.25;;;3.17;;
66264;SDS011;53055;44.648;21.148;2023-05-02T09:10:16;11.95;;;5.65;;
66264;SDS011;53055;44.648;21.148;2023-05-02T09:12:42;12.48;;;7.07;;
66264;SDS011;53055;44.648;21.148;2023-05-02T09:15:09;13.25;;;4.13;;
66264;SDS011;53055;44.648;21.148;2023-05-02T09:17:39;8.07;;;4.47;;
66264;SDS011;53055;44.648;21.148;2023-05-02T09:20:05;9.00;;;4.43;;
66264;SDS011;53055;44.648;21.148;2023-05-02T09:22:32;13.70;;;4.78;;
66264;SDS011;53055;44.648;21.148;2023-05-02T09:24:59;7.63;;;3.83;;
66264;SDS011;53055;44.648;21.148;2023-05-02T09:27:26;10.98;;;3.95;;
66264;SDS011;53055;44.648;21.148;2023-05-02T09:29:52;10.43;;;3.42;;
66264;SDS011;53055;44.648;21.148;2023-05-02T09:32:44;6.78;;;3.63;;
66264;SDS011;53055;44.648;21.148;2023-05-02T09:35:10;7.33;;;3.93;;
66264;SDS011;53055;44.648;21.148;2023-05-02T09:37:37;10.63;;;4.93;;
66264;SDS011;53055;44.648;21.148;2023-05-02T09:40:04;11.82;;;5.88;;
66264;SDS011;53055;44.648;21.148;2023-05-02T09:42:30;8.02;;;4.38;;
66264;SDS011;53055;44.648;21.148;2023-05-02T09:44:56;7.47;;;3.90;;
66264;SDS011;53055;44.648;21.148;2023-05-02T09:47:25;8.68;;;4.07;;
66264;SDS011;53055;44.648;21.148;2023-05-02T09:49:52;8.02;;;3.47;;
66264;SDS011;53055;44.648;21.148;2023-05-02T09:52:18;10.40;;;5.15;;
66264;SDS011;53055;44.648;21.148;2023-05-02T09:54:48;8.40;;;3.10;;
66264;SDS011;53055;44.648;21.148;2023-05-02T09:57:17;7.53;;;3.30;;
66264;SDS011;53055;44.648;21.148;2023-05-02T09:59:54;7.07;;;4.03;;
66264;SDS011;53055;44.648;21.148;2023-05-02T10:02:20;6.90;;;3.72;;
66264;SDS011;53055;44.648;21.148;2023-05-02T10:04:46;6.80;;;3.50;;
66264;SDS011;53055;44.648;21.148;2023-05-02T10:07:13;6.75;;;3.88;;
66264;SDS011;53055;44.648;21.148;2023-05-02T10:09:42;9.27;;;3.72;;
66264;SDS011;53055;44.648;21.148;2023-05-02T10:12:09;10.27;;;3.75;;
66264;SDS011;53055;44.648;21.148;2023-05-02T10:14:39;7.63;;;3.00;;
66264;SDS011;53055;44.648;21.148;2023-05-02T10:17:11;7.25;;;3.13;;
66264;SDS011;53055;44.648;21.148;2023-05-02T10:19:41;8.05;;;4.18;;
66264;SDS011;53055;44.648;21.148;2023-05-02T10:22:10;8.25;;;3.22;;
66264;SDS011;53055;44.648;21.148;2023-05-02T10:24:37;6.57;;;3.40;;
66264;SDS011;53055;44.648;21.148;2023-05-02T10:27:03;8.05;;;4.07;;
66264;SDS011;53055;44.648;21.148;2023-05-02T10:29:30;8.15;;;3.20;;
66264;SDS011;53055;44.648;21.148;2023-05-02T10:31:57;9.35;;;3.00;;
66264;SDS011;53055;44.648;21.148;2023-05-02T10:34:23;6.63;;;2.60;;
66264;SDS011;53055;44.648;21.148;2023-05-02T10:36:50;8.75;;;3.25;;
66264;SDS011;53055;44.648;21.148;2023-05-02T10:39:16;5.70;;;2.70;;
66264;SDS011;53055;44.648;21.148;2023-05-02T10:41:43;7.47;;;3.33;;
66264;SDS011;53055;44.648;21.148;2023-05-02T10:44:09;6.30;;;2.65;;
66264;SDS011;53055;44.648;21.148;2023-05-02T10:46:36;9.48;;;2.83;;
66264;SDS011;53055;44.648;21.148;2023-05-02T10:49:06;8.32;;;2.63;;
66264;SDS011;53055;44.648;21.148;2023-05-02T10:51:32;8.90;;;2.80;;
66264;SDS011;53055;44.648;21.148;2023-05-02T10:59:29;6.78;;;3.05;;
66264;SDS011;53055;44.648;21.148;2023-05-02T11:01:55;7.13;;;3.13;;
66264;SDS011;53055;44.648;21.148;2023-05-02T11:04:22;7.95;;;3.10;;
66264;SDS011;53055;44.648;21.148;2023-05-02T11:11:50;8.73;;;3.13;;
66264;SDS011;53055;44.648;21.148;2023-05-02T11:19:24;8.85;;;2.90;;
66264;SDS011;53055;44.648;21.148;2023-05-02T11:21:50;9.05;;;2.72;;
66264;SDS011;53055;44.648;21.148;2023-05-02T11:29:51;7.20;;;2.60;;
66264;SDS011;53055;44.648;21.148;2023-05-02T11:32:17;5.70;;;2.20;;
66264;SDS011;53055;44.648;21.148;2023-05-02T11:34:43;9.15;;;2.70;;
66264;SDS011;53055;44.648;21.148;2023-05-02T11:37:10;7.00;;;3.08;;
66264;SDS011;53055;44.648;21.148;2023-05-02T11:39:37;9.80;;;2.80;;
66264;SDS011;53055;44.648;21.148;2023-05-02T11:42:03;9.25;;;3.17;;
66264;SDS011;53055;44.648;21.148;2023-05-02T11:44:29;8.88;;;3.22;;
66264;SDS011;53055;44.648;21.148;2023-05-02T11:46:55;7.45;;;2.63;;
66264;SDS011;53055;44.648;21.148;2023-05-02T11:49:21;8.30;;;2.50;;
66264;SDS011;53055;44.648;21.148;2023-05-02T11:51:47;8.45;;;2.35;;
66264;SDS011;53055;44.648;21.148;2023-05-02T11:54:19;7.68;;;2.72;;
66264;SDS011;53055;44.648;21.148;2023-05-02T11:56:49;8.18;;;3.25;;
66264;SDS011;53055;44.648;21.148;2023-05-02T11:59:15;6.47;;;2.42;;
66264;SDS011;53055;44.648;21.148;2023-05-02T12:01:50;5.10;;;2.20;;
66264;SDS011;53055;44.648;21.148;2023-05-02T12:04:17;6.47;;;2.53;;
66264;SDS011;53055;44.648;21.148;2023-05-02T12:06:56;8.20;;;2.60;;
66264;SDS011;53055;44.648;21.148;2023-05-02T12:09:23;8.95;;;2.60;;
66264;SDS011;53055;44.648;21.148;2023-05-02T12:11:52;6.45;;;2.10;;
66264;SDS011;53055;44.648;21.148;2023-05-02T12:14:25;6.05;;;2.38;;
66264;SDS011;53055;44.648;21.148;2023-05-02T12:19:17;7.43;;;2.80;;
66264;SDS011;53055;44.648;21.148;2023-05-02T12:21:43;4.38;;;2.10;;
66264;SDS011;53055;44.648;21.148;2023-05-02T12:24:10;6.57;;;2.40;;
66264;SDS011;53055;44.648;21.148;2023-05-02T12:26:36;4.82;;;2.25;;
66264;SDS011;53055;44.648;21.148;2023-05-02T12:29:02;8.70;;;2.42;;
66264;SDS011;53055;44.648;21.148;2023-05-02T12:31:30;5.45;;;2.30;;
66264;SDS011;53055;44.648;21.148;2023-05-02T12:33:56;5.40;;;2.20;;
66264;SDS011;53055;44.648;21.148;2023-05-02T12:36:24;7.90;;;2.33;;
66264;SDS011;53055;44.648;21.148;2023-05-02T12:38:58;6.47;;;2.58;;
66264;SDS011;53055;44.648;21.148;2023-05-02T12:43:57;5.65;;;2.20;;
66264;SDS011;53055;44.648;21.148;2023-05-02T12:46:24;7.50;;;2.50;;
66264;SDS011;53055;44.648;21.148;2023-05-02T12:49:05;5.60;;;2.40;;
66264;SDS011;53055;44.648;21.148;2023-05-02T12:51:36;6.63;;;2.50;;
66264;SDS011;53055;44.648;21.148;2023-05-02T12:54:03;4.28;;;1.90;;
66264;SDS011;53055;44.648;21.148;2023-05-02T12:56:29;6.25;;;2.17;;
66264;SDS011;53055;44.648;21.148;2023-05-02T12:58:58;7.75;;;2.50;;
66264;SDS011;53055;44.648;21.148;2023-05-02T13:01:30;7.13;;;2.53;;
66264;SDS011;53055;44.648;21.148;2023-05-02T13:03:57;5.70;;;2.17;;
66264;SDS011;53055;44.648;21.148;2023-05-02T13:06:23;7.15;;;2.30;;
66264;SDS011;53055;44.648;21.148;2023-05-02T13:08:50;9.48;;;2.47;;
66264;SDS011;53055;44.648;21.148;2023-05-02T13:11:16;6.38;;;2.38;;
66264;SDS011;53055;44.648;21.148;2023-05-02T13:13:43;7.00;;;2.42;;
66264;SDS011;53055;44.648;21.148;2023-05-02T13:16:09;7.53;;;2.50;;
66264;SDS011;53055;44.648;21.148;2023-05-02T13:18:35;6.53;;;2.30;;
66264;SDS011;53055;44.648;21.148;2023-05-02T13:21:01;11.32;;;2.30;;
66264;SDS011;53055;44.648;21.148;2023-05-02T13:23:28;8.95;;;2.60;;
66264;SDS011;53055;44.648;21.148;2023-05-02T13:25:54;6.05;;;2.40;;
66264;SDS011;53055;44.648;21.148;2023-05-02T13:28:20;7.43;;;2.38;;
66264;SDS011;53055;44.648;21.148;2023-05-02T13:30:46;8.40;;;2.22;;
66264;SDS011;53055;44.648;21.148;2023-05-02T13:33:12;8.98;;;3.05;;
66264;SDS011;53055;44.648;21.148;2023-05-02T13:35:38;7.93;;;2.20;;
66264;SDS011;53055;44.648;21.148;2023-05-02T13:38:04;6.03;;;2.30;;
66264;SDS011;53055;44.648;21.148;2023-05-02T13:40:30;6.35;;;2.60;;
66264;SDS011;53055;44.648;21.148;2023-05-02T13:42:56;5.30;;;2.20;;
66264;SDS011;53055;44.648;21.148;2023-05-02T13:45:22;4.90;;;2.20;;
66264;SDS011;53055;44.648;21.148;2023-05-02T13:47:48;7.90;;;1.95;;
66264;SDS011;53055;44.648;21.148;2023-05-02T13:50:14;6.03;;;2.08;;
66264;SDS011;53055;44.648;21.148;2023-05-02T13:52:40;4.10;;;1.95;;
66264;SDS011;53055;44.648;21.148;2023-05-02T13:55:06;5.28;;;2.28;;
66264;SDS011;53055;44.648;21.148;2023-05-02T13:57:32;5.55;;;2.20;;
66264;SDS011;53055;44.648;21.148;2023-05-02T13:59:58;5.93;;;2.55;;
66264;SDS011;53055;44.648;21.148;2023-05-02T14:02:24;6.63;;;2.10;;
66264;SDS011;53055;44.648;21.148;2023-05-02T14:04:50;5.13;;;2.00;;
66264;SDS011;53055;44.648;21.148;2023-05-02T14:07:16;5.90;;;2.35;;
66264;SDS011;53055;44.648;21.148;2023-05-02T14:09:42;10.38;;;2.65;;
66264;SDS011;53055;44.648;21.148;2023-05-02T14:12:08;5.38;;;1.90;;
66264;SDS011;53055;44.648;21.148;2023-05-02T14:14:34;6.38;;;2.05;;
66264;SDS011;53055;44.648;21.148;2023-05-02T14:17:02;6.10;;;2.75;;
66264;SDS011;53055;44.648;21.148;2023-05-02T14:19:29;6.05;;;2.08;;
66264;SDS011;53055;44.648;21.148;2023-05-02T14:21:55;5.95;;;2.70;;
66264;SDS011;53055;44.648;21.148;2023-05-02T14:24:21;7.10;;;2.70;;
66264;SDS011;53055;44.648;21.148;2023-05-02T14:26:47;7.22;;;2.50;;
66264;SDS011;53055;44.648;21.148;2023-05-02T14:29:13;7.75;;;2.22;;
66264;SDS011;53055;44.648;21.148;2023-05-02T14:31:39;7.30;;;2.28;;
66264;SDS011;53055;44.648;21.148;2023-05-02T14:34:05;6.55;;;2.10;;
66264;SDS011;53055;44.648;21.148;2023-05-02T14:36:31;7.85;;;2.50;;
66264;SDS011;53055;44.648;21.148;2023-05-02T14:38:57;5.13;;;2.13;;
66264;SDS011;53055;44.648;21.148;2023-05-02T14:41:24;6.63;;;2.63;;
66264;SDS011;53055;44.648;21.148;2023-05-02T14:43:51;5.90;;;2.53;;
66264;SDS011;53055;44.648;21.148;2023-05-02T14:46:17;5.38;;;2.38;;
66264;SDS011;53055;44.648;21.148;2023-05-02T14:48:44;7.95;;;2.75;;
66264;SDS011;53055;44.648;21.148;2023-05-02T14:51:10;7.07;;;2.33;;
66264;SDS011;53055;44.648;21.148;2023-05-02T14:53:36;6.75;;;2.15;;
66264;SDS011;53055;44.648;21.148;2023-05-02T14:56:02;7.55;;;3.58;;
66264;SDS011;53055;44.648;21.148;2023-05-02T14:58:28;11.05;;;4.10;;
66264;SDS011;53055;44.648;21.148;2023-05-02T15:00:54;11.55;;;5.13;;
66264;SDS011;53055;44.648;21.148;2023-05-02T15:03:20;9.55;;;4.38;;
66264;SDS011;53055;44.648;21.148;2023-05-02T15:05:47;9.40;;;3.97;;
66264;SDS011;53055;44.648;21.148;2023-05-02T15:08:13;10.48;;;4.22;;
66264;SDS011;53055;44.648;21.148;2023-05-02T15:10:39;9.02;;;3.40;;
66264;SDS011;53055;44.648;21.148;2023-05-02T15:13:05;7.85;;;3.50;;
66264;SDS011;53055;44.648;21.148;2023-05-02T15:15:32;7.20;;;4.07;;
66264;SDS011;53055;44.648;21.148;2023-05-02T15:17:58;9.45;;;4.72;;
66264;SDS011;53055;44.648;21.148;2023-05-02T15:20:24;11.27;;;5.85;;
66264;SDS011;53055;44.648;21.148;2023-05-02T15:22:51;11.00;;;5.68;;
66264;SDS011;53055;44.648;21.148;2023-05-02T15:25:17;11.27;;;4.72;;
66264;SDS011;53055;44.648;21.148;2023-05-02T15:27:43;10.77;;;5.68;;
66264;SDS011;53055;44.648;21.148;2023-05-02T15:30:09;11.38;;;5.47;;